Time;durP1;ratioP1;P1;durP2;ratioP2;P2;SDS_P1;SDS_P2;PMS_P1;PMS_P2;Temp;Humidity;BMP_temperature;BMP_pressure;BME280_temperature;BME280_humidity;BME280_pressure;Samples;Min_cycle;Max_cycle;Signal;HPM_P1;HPM_P2
2021/07/28 00:00:41;;;;;;;5.60;5.20;;;;;;;21.53;84.69;95358.84;5052544;28;20218;-72
2021/07/28 00:03:10;;;;;;;5.80;4.97;;;;;;;21.55;84.07;95345.97;5064333;28;20420;-72
2021/07/28 00:05:37;;;;;;;5.90;5.60;;;;;;;21.54;84.02;95347.84;5060905;28;20334;-72
2021/07/28 00:08:06;;;;;;;6.07;5.53;;;;;;;21.49;84.43;95357.75;5075342;28;20225;-72
2021/07/28 00:10:34;;;;;;;4.60;4.30;;;;;;;21.47;84.09;95343.75;5060850;28;20708;-72
2021/07/28 00:13:04;;;;;;;5.13;4.83;;;;;;;21.47;84.52;95338.38;5066875;28;20299;-73
2021/07/28 00:15:31;;;;;;;5.47;5.17;;;;;;;21.45;84.88;95348.59;5072635;28;20222;-72
2021/07/28 00:18:02;;;;;;;4.43;4.23;;;;;;;21.43;84.72;95350.72;5068515;28;20277;-73
2021/07/28 00:23:13;;;;;;;7.73;5.33;;;;;;;21.36;85.11;95345.56;5054452;28;20237;-73
2021/07/28 00:23:19;;;;;;;7.97;5.23;;;;;;;21.39;84.85;95352.28;5074988;28;20224;-72
2021/07/28 00:25:48;;;;;;;6.53;5.30;;;;;;;21.38;85.38;95345.31;5061728;28;20633;-73
2021/07/28 00:28:18;;;;;;;5.73;5.47;;;;;;;21.34;85.00;95344.22;5062703;28;20275;-73
2021/07/28 00:30:46;;;;;;;4.10;3.90;;;;;;;21.31;85.13;95339.38;5060033;28;20230;-73
2021/07/28 00:33:14;;;;;;;5.53;5.03;;;;;;;21.27;85.25;95345.25;5044542;28;20242;-73
2021/07/28 00:35:42;;;;;;;6.23;4.67;;;;;;;21.24;84.52;95340.38;5041513;28;20224;-73
2021/07/28 00:38:10;;;;;;;4.90;3.87;;;;;;;21.23;84.70;95338.75;5052745;28;20687;-73
2021/07/28 00:40:38;;;;;;;3.70;3.50;;;;;;;21.23;85.30;95341.44;5051774;28;20226;-73
2021/07/28 00:43:14;;;;;;;3.93;3.67;;;;;;;21.22;85.60;95347.88;5070681;28;20474;-72
2021/07/28 00:45:44;;;;;;;4.50;4.20;;;;;;;21.27;85.32;95356.00;5058795;28;20221;-73
2021/07/28 00:48:14;;;;;;;5.10;4.80;;;;;;;21.13;86.23;95360.16;5067509;28;20561;-73
2021/07/28 00:50:45;;;;;;;4.20;4.00;;;;;;;21.14;85.72;95367.16;5053561;28;20261;-73
2021/07/28 00:53:18;;;;;;;4.60;4.30;;;;;;;20.99;86.34;95375.06;5043871;28;20210;-73
2021/07/28 00:55:47;;;;;;;4.87;4.53;;;;;;;20.68;86.70;95377.50;5037644;28;20222;-73
2021/07/28 00:58:15;;;;;;;6.53;6.03;;;;;;;20.43;88.53;95386.09;5069705;28;20225;-72
2021/07/28 01:00:45;;;;;;;7.63;6.90;;;;;;;20.26;89.43;95384.50;5068111;28;20267;-73
2021/07/28 01:03:14;;;;;;;9.57;8.70;;;;;;;20.36;89.15;95389.97;5055210;28;20223;-72
2021/07/28 01:05:43;;;;;;;4.63;4.33;;;;;;;20.58;88.27;95396.16;5058971;28;20265;-72
2021/07/28 01:08:11;;;;;;;5.83;5.43;;;;;;;20.62;87.69;95393.78;5064756;28;20297;-72
2021/07/28 01:10:39;;;;;;;6.07;5.67;;;;;;;20.61;87.89;95384.13;5058851;28;20465;-71
2021/07/28 01:13:08;;;;;;;4.67;4.37;;;;;;;20.57;87.77;95399.06;5068752;28;20218;-72
2021/07/28 01:15:42;;;;;;;5.43;5.13;;;;;;;20.45;88.22;95391.19;5080438;28;20225;-71
2021/07/28 01:18:14;;;;;;;6.63;5.70;;;;;;;20.54;87.87;95384.31;5069231;28;20248;-71
2021/07/28 01:20:44;;;;;;;4.87;4.47;;;;;;;20.55;87.92;95385.91;5055833;28;20271;-72
2021/07/28 01:23:20;;;;;;;7.33;5.63;;;;;;;20.51;87.96;95390.19;5069634;28;20221;-72
2021/07/28 01:25:50;;;;;;;4.00;3.80;;;;;;;20.38;87.66;95391.34;5063476;28;20222;-72
2021/07/28 01:28:19;;;;;;;4.47;4.17;;;;;;;20.32;87.95;95386.19;5051574;28;20749;-73
2021/07/28 01:30:59;;;;;;;6.97;4.20;;;;;;;20.13;87.56;95388.41;5051700;28;20280;-72
2021/07/28 01:33:29;;;;;;;4.33;4.03;;;;;;;20.30;87.92;95396.34;5046751;28;20219;-72
2021/07/28 01:35:58;;;;;;;3.30;3.10;;;;;;;20.37;86.85;95392.41;5050163;28;20215;-72
2021/07/28 01:38:28;;;;;;;3.77;3.57;;;;;;;20.26;87.08;95398.72;5071356;28;20222;-73
2021/07/28 01:40:58;;;;;;;3.50;3.30;;;;;;;20.28;86.60;95396.59;5074232;28;20351;-73
2021/07/28 01:43:27;;;;;;;4.50;4.30;;;;;;;20.25;86.80;95399.78;5069334;28;20226;-72
2021/07/28 01:45:56;;;;;;;2.93;2.77;;;;;;;20.22;86.56;95402.16;5062425;28;20251;-73
2021/07/28 01:48:25;;;;;;;3.10;2.50;;;;;;;20.12;87.01;95398.31;5046396;28;20239;-72
2021/07/28 01:50:54;;;;;;;4.27;3.77;;;;;;;20.16;86.63;95394.06;5057345;28;20234;-72
2021/07/28 01:53:24;;;;;;;3.13;2.83;;;;;;;20.18;86.68;95399.97;5047540;28;20239;-72
2021/07/28 01:55:54;;;;;;;3.67;3.13;;;;;;;20.13;86.79;95394.56;5040865;28;20307;-72
2021/07/28 01:58:23;;;;;;;3.20;3.03;;;;;;;20.06;87.13;95393.13;5053379;28;20499;-72
2021/07/28 02:00:52;;;;;;;4.67;3.10;;;;;;;20.03;86.80;95389.09;5059426;28;20275;-72
2021/07/28 02:03:21;;;;;;;3.10;2.90;;;;;;;19.91;87.37;95387.56;5048051;28;20261;-72
2021/07/28 02:05:49;;;;;;;4.67;4.37;;;;;;;19.94;87.54;95387.09;5042785;28;20761;-72
2021/07/28 02:08:18;;;;;;;3.63;2.67;;;;;;;19.83;87.53;95388.81;5065027;28;20305;-72
2021/07/28 02:10:48;;;;;;;3.23;3.03;;;;;;;19.90;87.30;95394.81;5050507;28;20222;-72
2021/07/28 02:13:20;;;;;;;4.23;3.20;;;;;;;19.93;87.68;95388.94;5063418;28;20275;-72
2021/07/28 02:15:50;;;;;;;2.40;2.30;;;;;;;19.93;87.39;95383.59;5066278;28;20207;-72
2021/07/28 02:18:18;;;;;;;3.43;3.13;;;;;;;19.89;87.62;95377.94;5076291;28;20226;-72
2021/07/28 02:20:46;;;;;;;4.13;3.93;;;;;;;19.91;87.55;95366.97;5045194;28;20288;-72
2021/07/28 02:23:14;;;;;;;3.03;2.87;;;;;;;19.93;87.56;95370.19;5068523;28;20217;-71
2021/07/28 02:25:42;;;;;;;3.30;3.10;;;;;;;19.84;87.34;95369.00;5059840;28;20233;-72
2021/07/28 02:28:10;;;;;;;2.83;2.63;;;;;;;19.84;87.44;95374.34;5045853;28;20258;-72
2021/07/28 02:30:40;;;;;;;2.70;2.07;;;;;;;19.79;87.71;95377.00;5079030;28;20717;-71
2021/07/28 02:33:08;;;;;;;2.63;2.43;;;;;;;19.84;87.71;95374.34;5069688;28;20223;-72
2021/07/28 02:35:36;;;;;;;2.53;2.43;;;;;;;19.89;87.21;95369.09;5046961;28;20217;-70
2021/07/28 02:38:04;;;;;;;2.70;2.50;;;;;;;19.87;87.23;95371.22;5071177;28;20242;-72
2021/07/28 02:40:33;;;;;;;4.10;2.83;;;;;;;19.88;87.26;95375.50;5076212;28;20237;-72
2021/07/28 02:43:01;;;;;;;3.07;2.87;;;;;;;19.97;86.90;95382.03;5064208;28;20219;-72
2021/07/28 02:45:29;;;;;;;6.03;3.07;;;;;;;19.99;86.63;95387.94;5057815;28;20595;-72
2021/07/28 02:47:58;;;;;;;2.67;2.47;;;;;;;19.92;86.78;95379.28;5071167;28;20307;-72
2021/07/28 02:50:26;;;;;;;3.53;3.23;;;;;;;19.91;86.65;95375.00;5054975;28;20356;-72
2021/07/28 02:52:55;;;;;;;8.90;3.60;;;;;;;19.87;86.73;95373.88;5038605;28;20238;-72
2021/07/28 02:55:23;;;;;;;2.03;1.90;;;;;;;19.76;86.89;95366.78;5040570;28;22701;-72
2021/07/28 02:57:51;;;;;;;3.17;2.40;;;;;;;19.81;86.47;95356.13;5067039;28;20237;-72
2021/07/28 03:00:19;;;;;;;2.80;2.40;;;;;;;19.85;86.20;95365.28;5079426;28;20222;-74
2021/07/28 03:02:47;;;;;;;10.77;2.80;;;;;;;19.85;86.49;95362.63;5038717;28;20250;-74
2021/07/28 03:05:17;;;;;;;2.83;2.73;;;;;;;19.80;86.50;95352.63;5047890;28;20217;-74
2021/07/28 03:07:45;;;;;;;2.70;2.60;;;;;;;19.91;86.49;95358.91;5070442;28;20262;-74
2021/07/28 03:10:13;;;;;;;3.17;2.90;;;;;;;19.98;86.27;95353.38;5047975;28;20226;-74
2021/07/28 03:12:41;;;;;;;3.27;3.07;;;;;;;19.94;86.34;95353.09;5067886;28;20237;-74
2021/07/28 03:15:09;;;;;;;7.73;3.13;;;;;;;19.95;85.91;95352.03;5067361;28;20287;-74
2021/07/28 03:17:37;;;;;;;3.13;2.90;;;;;;;19.93;86.05;95346.09;5072772;28;20221;-74
2021/07/28 03:20:06;;;;;;;2.33;2.20;;;;;;;19.95;85.71;95349.34;5075175;28;20742;-74
2021/07/28 03:22:35;;;;;;;4.40;2.30;;;;;;;19.94;85.96;95350.41;5068022;28;20246;-74
2021/07/28 03:25:04;;;;;;;2.23;2.13;;;;;;;19.93;85.40;95351.44;5051136;28;20297;-70
2021/07/28 03:27:33;;;;;;;3.70;3.40;;;;;;;19.89;86.01;95353.00;5059501;28;20620;-70
2021/07/28 03:30:01;;;;;;;3.27;2.97;;;;;;;19.88;85.99;95360.25;5066344;28;20278;-70
2021/07/28 03:32:29;;;;;;;3.70;2.23;;;;;;;19.81;86.50;95366.84;5066722;28;20569;-71
2021/07/28 03:34:58;;;;;;;1.80;1.70;;;;;;;19.78;86.32;95357.44;5053060;28;20765;-70
2021/07/28 03:37:26;;;;;;;2.87;2.67;;;;;;;19.63;86.87;95356.41;5067501;28;20226;-70
2021/07/28 03:40:01;;;;;;;3.60;3.03;;;;;;;19.44;87.38;95362.03;5050972;28;20315;-70
2021/07/28 03:42:30;;;;;;;4.60;2.13;;;;;;;19.46;87.63;95367.13;5054130;28;20235;-70
2021/07/28 03:44:59;;;;;;;3.47;2.60;;;;;;;19.49;87.48;95370.16;5067032;28;20735;-70
2021/07/28 03:47:27;;;;;;;3.10;2.93;;;;;;;19.56;87.32;95373.47;5058629;28;20226;-70
2021/07/28 03:49:56;;;;;;;2.73;2.53;;;;;;;19.59;87.37;95373.00;5047541;28;20218;-70
2021/07/28 03:52:24;;;;;;;10.67;4.03;;;;;;;19.54;87.49;95372.06;5044597;28;20226;-70
2021/07/28 03:54:52;;;;;;;2.97;2.77;;;;;;;19.57;87.39;95377.78;5057433;28;20225;-70
2021/07/28 03:57:22;;;;;;;2.90;2.63;;;;;;;19.58;87.68;95371.38;5053030;28;20686;-70
2021/07/28 03:59:50;;;;;;;2.37;2.17;;;;;;;19.66;87.42;95366.63;5058355;28;20221;-70
2021/07/28 04:02:19;;;;;;;4.00;2.60;;;;;;;19.65;87.39;95365.00;5069260;28;20213;-70
2021/07/28 04:04:47;;;;;;;2.93;2.73;;;;;;;19.66;87.24;95366.63;5063931;28;20218;-70
2021/07/28 04:07:15;;;;;;;2.57;2.47;;;;;;;19.67;87.23;95362.91;5062278;28;20264;-70
2021/07/28 04:09:43;;;;;;;3.53;2.73;;;;;;;19.64;87.62;95363.41;5050303;28;20214;-70
2021/07/28 04:12:11;;;;;;;4.73;4.30;;;;;;;19.56;87.75;95361.94;5062736;28;20234;-70
2021/07/28 04:14:41;;;;;;;4.60;2.90;;;;;;;19.58;87.94;95360.66;5059366;28;20276;-70
2021/07/28 04:17:09;;;;;;;4.03;2.87;;;;;;;19.52;87.97;95369.66;5052644;28;20211;-70
2021/07/28 04:19:37;;;;;;;2.83;2.63;;;;;;;19.67;87.56;95363.72;5049587;28;20223;-70
2021/07/28 04:22:06;;;;;;;2.57;2.30;;;;;;;19.63;87.61;95364.44;5052696;28;20288;-70
2021/07/28 04:24:34;;;;;;;3.50;3.30;;;;;;;19.66;87.48;95354.09;5045802;28;20219;-70
2021/07/28 04:27:02;;;;;;;3.33;3.13;;;;;;;19.68;87.47;95360.00;5053444;28;20276;-70
2021/07/28 04:29:31;;;;;;;2.80;2.70;;;;;;;19.69;87.20;95355.44;5050045;28;20236;-70
2021/07/28 04:32:00;;;;;;;3.10;2.90;;;;;;;19.79;87.11;95360.94;5058606;28;20222;-70
2021/07/28 04:34:28;;;;;;;2.47;2.37;;;;;;;19.81;87.00;95358.81;5067527;28;20399;-71
2021/07/28 04:36:56;;;;;;;3.03;2.87;;;;;;;19.80;86.88;95351.84;5040944;28;20402;-70
2021/07/28 04:39:25;;;;;;;2.33;2.13;;;;;;;19.84;87.08;95358.28;5071872;28;20221;-70
2021/07/28 04:41:52;;;;;;;3.77;2.87;;;;;;;19.82;86.79;95358.53;5048024;28;21758;-70
2021/07/28 04:44:21;;;;;;;2.40;2.13;;;;;;;19.84;86.83;95360.97;5057960;28;20218;-70
2021/07/28 04:46:48;;;;;;;3.93;3.50;;;;;;;19.91;86.90;95383.03;5036886;28;20234;-70
2021/07/28 04:49:18;;;;;;;3.23;3.03;;;;;;;19.89;87.00;95380.59;5065546;28;20530;-70
2021/07/28 04:51:47;;;;;;;2.77;2.50;;;;;;;19.96;86.44;95383.09;5039734;28;20218;-70
2021/07/28 04:54:15;;;;;;;4.80;2.87;;;;;;;19.94;86.72;95382.56;5056395;28;20461;-70
2021/07/28 04:56:44;;;;;;;2.77;2.63;;;;;;;19.92;86.74;95370.44;5049909;28;20285;-70
2021/07/28 04:59:12;;;;;;;5.90;3.50;;;;;;;19.95;86.37;95375.31;5060353;28;20788;-70
2021/07/28 05:01:40;;;;;;;3.27;3.07;;;;;;;19.93;86.51;95375.53;5053901;28;20337;-70
2021/07/28 05:04:09;;;;;;;3.47;3.33;;;;;;;19.92;86.71;95371.25;5064468;28;20616;-70
2021/07/28 05:06:40;;;;;;;3.73;3.43;;;;;;;19.93;87.00;95369.38;5054033;28;20616;-70
2021/07/28 05:09:09;;;;;;;3.27;3.07;;;;;;;19.86;87.06;95367.72;5060217;28;20714;-70
2021/07/28 05:11:37;;;;;;;3.73;3.40;;;;;;;19.84;87.30;95360.97;5041482;28;20628;-70
2021/07/28 05:14:06;;;;;;;4.37;3.97;;;;;;;19.96;86.80;95367.03;5059589;28;20231;-70
2021/07/28 05:16:34;;;;;;;4.50;4.10;;;;;;;19.95;86.96;95359.25;5049633;28;20238;-70
2021/07/28 05:19:03;;;;;;;2.73;2.63;;;;;;;20.01;86.84;95353.69;5046911;28;20233;-70
2021/07/28 05:21:36;;;;;;;3.97;3.30;;;;;;;20.06;86.72;95353.75;5077346;28;20217;-70
2021/07/28 05:24:06;;;;;;;3.17;2.93;;;;;;;20.12;86.71;95352.75;5049588;28;20481;-70
2021/07/28 05:26:34;;;;;;;3.87;3.67;;;;;;;20.16;86.61;95351.19;5064902;28;20226;-70
2021/07/28 05:29:02;;;;;;;5.77;5.33;;;;;;;20.11;86.75;95353.78;5073212;28;20511;-70
2021/07/28 05:31:30;;;;;;;11.33;4.67;;;;;;;20.16;86.51;95345.84;5075431;28;20245;-70
2021/07/28 05:33:58;;;;;;;6.43;4.97;;;;;;;20.25;86.28;95332.78;5070668;28;20226;-70
2021/07/28 05:36:26;;;;;;;4.40;4.10;;;;;;;20.30;86.53;95330.19;5046975;28;20221;-69
2021/07/28 05:38:54;;;;;;;4.87;4.40;;;;;;;20.34;86.58;95342.00;5076542;28;20271;-70
2021/07/28 05:41:25;;;;;;;4.37;4.07;;;;;;;20.36;86.29;95355.13;5054198;28;20250;-70
2021/07/28 05:43:53;;;;;;;5.43;5.07;;;;;;;20.34;86.26;95351.91;5074063;28;20715;-70
2021/07/28 05:46:21;;;;;;;3.77;3.57;;;;;;;20.34;86.75;95352.72;5045777;28;20573;-70
2021/07/28 05:48:50;;;;;;;4.10;3.83;;;;;;;20.40;86.59;95350.91;5059923;28;20225;-70
2021/07/28 05:51:17;;;;;;;5.43;5.03;;;;;;;20.46;86.05;95355.28;5065858;28;20261;-70
2021/07/28 05:53:45;;;;;;;4.30;4.00;;;;;;;20.50;86.09;95353.72;5058240;28;20298;-70
2021/07/28 05:56:13;;;;;;;5.37;4.87;;;;;;;20.61;86.08;95357.31;5048794;28;20226;-70
2021/07/28 05:58:43;;;;;;;7.43;6.63;;;;;;;20.85;85.73;95357.78;5067294;28;20780;-70
2021/07/28 06:01:11;;;;;;;5.03;4.70;;;;;;;20.91;85.45;95362.13;5066502;28;20287;-70
2021/07/28 06:03:40;;;;;;;7.07;6.60;;;;;;;20.90;85.07;95355.94;5076454;28;20225;-70
2021/07/28 06:06:08;;;;;;;5.57;5.27;;;;;;;20.94;85.17;95353.59;5076594;28;20234;-70
2021/07/28 06:08:36;;;;;;;5.53;5.13;;;;;;;20.96;85.09;95354.94;5085023;28;20267;-70
2021/07/28 06:11:04;;;;;;;5.57;5.03;;;;;;;21.04;84.67;95356.34;5068888;28;20229;-70
2021/07/28 06:13:32;;;;;;;8.70;6.17;;;;;;;21.06;84.56;95372.97;5072643;28;20222;-70
2021/07/28 06:16:01;;;;;;;5.13;4.83;;;;;;;21.01;84.89;95372.94;5046447;28;20214;-70
2021/07/28 06:18:29;;;;;;;5.57;5.27;;;;;;;20.91;85.08;95380.91;5059227;28;20221;-70
2021/07/28 06:20:57;;;;;;;5.77;4.77;;;;;;;20.86;85.70;95376.31;5064128;28;20641;-70
2021/07/28 06:23:26;;;;;;;4.77;4.57;;;;;;;20.86;85.86;95375.50;5054410;28;20287;-70
2021/07/28 06:25:55;;;;;;;6.47;6.07;;;;;;;20.85;85.71;95380.06;5059831;28;20219;-70
2021/07/28 06:28:24;;;;;;;6.87;6.27;;;;;;;20.87;85.75;95377.13;5062149;28;20718;-70
2021/07/28 06:30:52;;;;;;;6.20;5.77;;;;;;;20.85;85.40;95384.63;5081154;28;20230;-70
2021/07/28 06:33:23;;;;;;;6.97;6.47;;;;;;;20.81;85.18;95378.94;5044011;28;20227;-70
2021/07/28 06:35:51;;;;;;;7.30;6.60;;;;;;;20.85;84.73;95385.44;5060047;28;20255;-70
2021/07/28 06:38:20;;;;;;;6.87;6.40;;;;;;;20.85;85.25;95384.63;5085366;28;20679;-70
2021/07/28 06:40:49;;;;;;;7.27;6.77;;;;;;;20.92;84.73;95375.28;5085649;28;20217;-70
2021/07/28 06:43:17;;;;;;;6.03;5.63;;;;;;;20.99;84.79;95380.44;5065027;28;20226;-70
2021/07/28 06:45:45;;;;;;;7.20;6.70;;;;;;;21.07;84.50;95377.28;5058429;28;20229;-70
2021/07/28 06:48:13;;;;;;;7.97;7.27;;;;;;;21.12;83.81;95379.19;5064048;28;20271;-70
2021/07/28 06:50:42;;;;;;;6.27;5.80;;;;;;;21.14;83.75;95377.88;5054249;28;20280;-70
2021/07/28 06:53:10;;;;;;;6.07;5.67;;;;;;;21.20;84.42;95376.84;5057707;28;20238;-70
2021/07/28 06:55:38;;;;;;;6.57;6.17;;;;;;;21.25;83.86;95382.25;5071399;28;20253;-70
2021/07/28 06:58:06;;;;;;;7.07;6.57;;;;;;;21.31;83.30;95371.59;5051258;28;20307;-70
2021/07/28 07:00:34;;;;;;;15.17;7.27;;;;;;;21.30;83.74;95376.13;5063555;28;20316;-70
2021/07/28 07:03:03;;;;;;;6.80;6.17;;;;;;;21.36;83.80;95379.66;5042280;28;20339;-68
2021/07/28 07:05:32;;;;;;;6.53;5.93;;;;;;;21.43;83.35;95374.88;5063588;28;20231;-68
2021/07/28 07:08:02;;;;;;;7.00;6.30;;;;;;;21.40;83.21;95375.41;5039713;28;20768;-68
2021/07/28 07:10:30;;;;;;;6.23;5.83;;;;;;;21.31;83.91;95376.97;5052474;28;20218;-68
2021/07/28 07:12:57;;;;;;;12.67;9.00;;;;;;;21.31;83.91;95371.59;5071664;28;20221;-68
2021/07/28 07:15:26;;;;;;;5.60;5.20;;;;;;;21.42;83.47;95373.28;5076391;28;20697;-68
2021/07/28 07:17:54;;;;;;;7.00;6.43;;;;;;;21.45;83.75;95378.13;5062823;28;20282;-68
2021/07/28 07:20:22;;;;;;;10.63;9.53;;;;;;;21.39;83.97;95388.00;5053921;28;20226;-68
2021/07/28 07:22:49;;;;;;;9.00;8.40;;;;;;;21.40;83.81;95380.78;5057354;28;20217;-68
2021/07/28 07:25:20;;;;;;;9.77;9.07;;;;;;;21.24;84.06;95388.69;5044003;28;20633;-68
2021/07/28 07:27:48;;;;;;;8.23;7.73;;;;;;;21.21;84.47;95383.84;5045664;28;20286;-68
2021/07/28 07:30:16;;;;;;;8.97;8.43;;;;;;;21.18;85.26;95381.66;5035350;28;20228;-67
2021/07/28 07:32:44;;;;;;;9.57;8.87;;;;;;;21.16;84.51;95399.91;5067990;28;20282;-68
2021/07/28 07:35:13;;;;;;;8.23;7.63;;;;;;;21.18;84.63;95397.75;5070183;28;20633;-68
2021/07/28 07:37:40;;;;;;;10.67;9.83;;;;;;;20.96;85.87;95407.78;5059713;28;20222;-68
2021/07/28 07:40:10;;;;;;;11.00;10.13;;;;;;;20.95;85.60;95409.66;5073752;28;20280;-68
2021/07/28 07:42:39;;;;;;;8.17;7.67;;;;;;;20.94;85.76;95412.59;5066905;28;20305;-68
2021/07/28 07:45:08;;;;;;;9.80;9.10;;;;;;;20.92;86.00;95422.75;5077066;28;20829;-68
2021/07/28 07:47:35;;;;;;;9.37;8.67;;;;;;;20.73;86.67;95424.97;5064948;28;20245;-68
2021/07/28 07:50:04;;;;;;;11.67;10.50;;;;;;;20.81;86.54;95432.56;5054862;28;20327;-67
2021/07/28 07:52:32;;;;;;;10.97;10.07;;;;;;;20.73;87.27;95431.16;5049865;28;20754;-68
2021/07/28 07:55:00;;;;;;;13.80;10.67;;;;;;;20.63;87.77;95431.06;5067874;28;20233;-68
2021/07/28 07:57:28;;;;;;;12.83;11.83;;;;;;;20.72;87.79;95428.72;5064225;28;20615;-67
2021/07/28 07:59:59;;;;;;;10.37;9.47;;;;;;;20.84;86.88;95437.44;5075071;28;20754;-67
2021/07/28 08:02:27;;;;;;;10.43;9.70;;;;;;;20.75;87.63;95438.94;5076180;28;20233;-67
2021/07/28 08:04:56;;;;;;;13.93;12.70;;;;;;;20.70;88.04;95442.41;5071140;28;20229;-68
2021/07/28 08:07:24;;;;;;;14.97;13.67;;;;;;;20.65;87.81;95445.00;5076827;28;20245;-67
2021/07/28 08:09:53;;;;;;;11.27;10.20;;;;;;;20.58;88.90;95441.75;5068612;28;20217;-67
2021/07/28 08:12:21;;;;;;;11.03;10.13;;;;;;;20.77;87.73;95436.03;5065061;28;20224;-68
2021/07/28 08:14:50;;;;;;;12.70;11.63;;;;;;;20.65;87.95;95445.00;5079903;28;20222;-68
2021/07/28 08:17:20;;;;;;;12.00;11.17;;;;;;;20.51;88.49;95451.84;5068529;28;20665;-67
2021/07/28 08:19:52;;;;;;;11.83;10.90;;;;;;;20.36;88.52;95457.00;5073545;28;20226;-67
2021/07/28 08:22:20;;;;;;;12.17;11.23;;;;;;;20.43;88.67;95457.66;5061804;28;20221;-68
2021/07/28 08:24:47;;;;;;;11.77;10.73;;;;;;;20.38;88.73;95460.22;5062477;28;20605;-67
2021/07/28 08:27:16;;;;;;;15.10;13.80;;;;;;;20.39;89.66;95456.47;5071217;28;20283;-68
2021/07/28 08:29:44;;;;;;;14.23;13.03;;;;;;;20.39;89.84;95467.19;5080142;28;20768;-67
2021/07/28 08:32:12;;;;;;;12.97;11.80;;;;;;;20.39;89.19;95462.69;5048935;28;20250;-67
2021/07/28 08:34:42;;;;;;;13.63;12.43;;;;;;;20.45;88.61;95468.91;5047927;28;20218;-70
2021/07/28 08:37:10;;;;;;;11.37;10.57;;;;;;;20.57;88.42;95474.94;5052450;28;20764;-67
2021/07/28 08:39:38;;;;;;;11.80;10.80;;;;;;;20.51;88.70;95470.59;5075196;28;20210;-67
2021/07/28 08:42:06;;;;;;;11.70;10.80;;;;;;;20.60;88.80;95468.28;5068660;28;20284;-67
2021/07/28 08:44:36;;;;;;;10.77;9.93;;;;;;;20.47;89.19;95469.47;5074693;28;20690;-67
2021/07/28 08:47:05;;;;;;;13.93;11.57;;;;;;;20.38;89.24;95462.91;5049628;28;20281;-67
2021/07/28 08:49:34;;;;;;;12.00;10.93;;;;;;;20.34;89.62;95465.28;5045965;28;20239;-67
2021/07/28 08:52:04;;;;;;;14.40;13.20;;;;;;;20.42;89.08;95461.34;5057443;28;20234;-67
2021/07/28 08:54:32;;;;;;;13.43;12.20;;;;;;;20.31;90.22;95454.25;5070800;28;20303;-67
2021/07/28 08:57:01;;;;;;;11.17;9.93;;;;;;;20.39;89.19;95451.13;5069746;28;20227;-67
2021/07/28 08:59:31;;;;;;;13.63;12.30;;;;;;;20.50;89.67;95458.28;5076740;28;20242;-67
2021/07/28 09:02:00;;;;;;;13.63;12.37;;;;;;;20.35;89.76;95461.53;5072986;28;20792;-67
2021/07/28 09:04:29;;;;;;;11.60;10.60;;;;;;;20.55;88.74;95466.34;5050927;28;20226;-67
2021/07/28 09:06:57;;;;;;;11.60;10.13;;;;;;;20.54;89.03;95469.28;5072573;28;20226;-67
2021/07/28 09:09:29;;;;;;;13.07;12.07;;;;;;;20.54;88.50;95474.66;5073182;28;20245;-68
2021/07/28 09:11:59;;;;;;;11.40;10.47;;;;;;;20.70;88.83;95473.75;5057492;28;20489;-67
2021/07/28 09:14:30;;;;;;;9.87;9.17;;;;;;;20.73;87.87;95474.06;5071917;28;20222;-67
2021/07/28 09:17:13;;;;;;;12.60;11.43;;;;;;;20.52;88.37;95480.28;5070709;28;20227;-67
2021/07/28 09:19:42;;;;;;;9.63;9.03;;;;;;;20.64;88.29;95477.44;5071008;28;20217;-67
2021/07/28 09:22:26;;;;;;;8.90;8.10;;;;;;;20.79;87.74;95482.19;5065672;28;20238;-67
2021/07/28 09:25:15;;;;;;;8.87;8.17;;;;;;;20.85;87.31;95491.91;5065524;28;20222;-68
2021/07/28 09:27:47;;;;;;;8.43;7.73;;;;;;;20.88;87.38;95489.53;5042703;28;20758;-68
2021/07/28 09:30:17;;;;;;;7.60;7.00;;;;;;;20.87;86.99;95493.25;5067230;28;20607;-68
2021/07/28 09:33:04;;;;;;;7.70;7.10;;;;;;;20.73;86.31;95500.88;5048886;28;20245;-68
2021/07/28 09:36:11;;;;;;;7.60;7.00;;;;;;;20.51;86.40;95508.13;5052234;28;20226;-68
2021/07/28 09:38:45;;;;;;;7.13;6.53;;;;;;;20.41;86.53;95508.00;5068134;28;20732;-68
2021/07/28 09:41:21;;;;;;;7.87;7.07;;;;;;;20.12;86.78;95510.81;5066922;28;20222;-68
2021/07/28 09:43:55;;;;;;;8.67;6.10;;;;;;;20.14;86.55;95503.34;5070955;28;20245;-67
2021/07/28 09:46:30;;;;;;;5.30;4.93;;;;;;;20.25;86.16;95503.47;5046681;28;20221;-68
2021/07/28 09:48:59;;;;;;;4.50;4.20;;;;;;;20.08;86.33;95515.03;5044576;28;20345;-68
2021/07/28 09:51:32;;;;;;;8.63;3.40;;;;;;;20.39;84.15;95510.06;5049714;28;20313;-67
2021/07/28 09:54:02;;;;;;;4.10;3.80;;;;;;;20.42;84.74;95523.00;5044267;28;20249;-68
2021/07/28 09:56:45;;;;;;;5.37;5.00;;;;;;;20.45;84.39;95525.22;5065135;28;20261;-68
2021/07/28 09:59:13;;;;;;;4.50;4.17;;;;;;;20.52;83.92;95509.75;5071710;28;22121;-68
2021/07/28 10:01:44;;;;;;;3.53;3.33;;;;;;;20.51;83.65;95510.81;5067712;28;20274;-68
2021/07/28 10:04:14;;;;;;;3.70;3.50;;;;;;;20.41;84.29;95513.34;5063518;28;20225;-68
2021/07/28 10:06:44;;;;;;;4.20;3.93;;;;;;;20.25;84.59;95522.25;5074084;28;20217;-68
2021/07/28 10:09:16;;;;;;;3.40;3.20;;;;;;;20.20;84.44;95524.84;5058160;28;20255;-68
2021/07/28 10:11:46;;;;;;;4.30;3.90;;;;;;;20.29;83.98;95523.34;5060962;28;20267;-68
2021/07/28 10:14:17;;;;;;;4.63;4.33;;;;;;;20.26;83.97;95521.19;5081123;28;20221;-68
2021/07/28 10:16:46;;;;;;;3.93;3.73;;;;;;;20.21;84.61;95513.06;5059809;28;20245;-68
2021/07/28 10:19:16;;;;;;;4.90;4.23;;;;;;;20.16;84.11;95511.94;5072352;28;20253;-68
2021/07/28 10:21:54;;;;;;;3.27;3.07;;;;;;;20.11;84.85;95514.53;5054644;28;20237;-67
2021/07/28 10:24:24;;;;;;;4.90;4.03;;;;;;;20.13;85.35;95523.16;5056407;28;20230;-68
2021/07/28 10:26:55;;;;;;;3.73;3.43;;;;;;;20.12;84.84;95510.81;5049535;28;20250;-68
2021/07/28 10:29:28;;;;;;;4.73;3.93;;;;;;;20.20;84.71;95506.09;5070471;28;20225;-68
2021/07/28 10:31:57;;;;;;;4.67;4.40;;;;;;;20.24;84.76;95501.88;5068280;28;20234;-67
2021/07/28 10:34:27;;;;;;;4.00;3.80;;;;;;;20.32;83.99;95498.75;5064454;28;20225;-68
2021/07/28 10:37:01;;;;;;;3.43;3.10;;;;;;;20.32;84.20;95493.41;5066105;28;20221;-68
2021/07/28 10:39:37;;;;;;;4.13;3.83;;;;;;;20.28;83.45;95487.72;5068692;28;20249;-68
2021/07/28 10:42:07;;;;;;;4.00;2.97;;;;;;;20.20;83.41;95490.00;5076968;28;20256;-67
2021/07/28 10:45:02;;;;;;;3.30;2.57;;;;;;;20.26;84.56;95495.19;5075257;28;20251;-68
2021/07/28 10:47:40;;;;;;;3.37;3.17;;;;;;;20.36;84.53;95492.63;5054527;28;20226;-67
2021/07/28 10:50:43;;;;;;;3.83;3.40;;;;;;;20.39;83.84;95507.41;5054018;28;20218;-68
2021/07/28 10:53:11;;;;;;;3.50;3.30;;;;;;;20.47;83.50;95496.28;5062918;28;20255;-68
2021/07/28 10:55:40;;;;;;;3.70;3.50;;;;;;;20.50;83.52;95497.66;5070084;28;20616;-68
2021/07/28 10:58:27;;;;;;;3.63;3.43;;;;;;;20.57;82.97;95501.75;5074518;28;20286;-68
2021/07/28 11:00:58;;;;;;;4.17;3.80;;;;;;;20.58;82.78;95502.59;5078044;28;20694;-68
2021/07/28 11:03:36;;;;;;;5.17;4.67;;;;;;;20.39;83.82;95504.72;5082423;28;20678;-68
2021/07/28 11:06:16;;;;;;;6.57;3.13;;;;;;;20.36;84.94;95497.19;5067803;28;20247;-68
2021/07/28 11:08:45;;;;;;;3.77;3.57;;;;;;;20.43;83.96;95501.34;5082501;28;20312;-68
2021/07/28 11:11:29;;;;;;;3.93;3.53;;;;;;;20.63;83.64;95500.75;5052409;28;20793;-68
2021/07/28 11:14:03;;;;;;;4.50;4.07;;;;;;;20.77;82.22;95505.75;5075535;28;20233;-68
2021/07/28 11:16:33;;;;;;;5.60;3.90;;;;;;;20.70;82.83;95503.25;5050010;28;20285;-68
2021/07/28 11:19:01;;;;;;;3.57;3.37;;;;;;;20.37;83.02;95507.66;5043645;28;20658;-67
2021/07/28 11:21:30;;;;;;;3.63;3.30;;;;;;;20.67;82.92;95504.59;5068717;28;20217;-68
2021/07/28 11:24:01;;;;;;;4.83;4.27;;;;;;;20.59;82.60;95507.72;5072976;28;20230;-69
2021/07/28 11:26:33;;;;;;;5.20;3.90;;;;;;;20.78;83.69;95510.88;5061840;28;20714;-67
2021/07/28 11:29:06;;;;;;;4.27;3.97;;;;;;;20.60;83.40;95503.97;5067221;28;20264;-68
2021/07/28 11:31:36;;;;;;;3.07;2.97;;;;;;;20.98;82.79;95508.41;5083509;28;20222;-68
2021/07/28 11:34:15;;;;;;;3.40;3.17;;;;;;;21.17;81.02;95503.47;5060170;28;20285;-68
2021/07/28 11:36:46;;;;;;;4.33;3.87;;;;;;;21.44;80.56;95497.31;5065691;28;20226;-68
2021/07/28 11:39:19;;;;;;;2.67;2.40;;;;;;;21.70;78.35;95504.50;5068578;28;20235;-67
2021/07/28 11:41:48;;;;;;;2.53;2.40;;;;;;;21.51;79.31;95490.66;5056055;28;20430;-68
2021/07/28 11:44:19;;;;;;;2.53;2.43;;;;;;;21.53;78.89;95498.47;5047243;28;20224;-68